createdAt,value
2023-12-11T00:00:53.907Z,4.37
2023-12-11T00:02:56.700Z,4.35
2023-12-11T00:04:58.169Z,4.22
2023-12-11T00:07:00.433Z,4.05
2023-12-11T00:09:01.897Z,4.03
2023-12-11T00:11:03.545Z,4.12
2023-12-11T00:13:05.321Z,3.95
2023-12-11T00:15:07.400Z,3.94
2023-12-11T00:17:08.845Z,4.06
2023-12-11T00:19:10.700Z,4.02
2023-12-11T00:21:12.508Z,4.08
2023-12-11T00:23:13.944Z,3.83
2023-12-11T00:25:15.901Z,4.13
2023-12-11T00:27:17.386Z,4.19
2023-12-11T00:29:18.932Z,4.13
2023-12-11T00:31:20.517Z,4.11
2023-12-11T00:33:22.020Z,4.12
2023-12-11T00:35:23.514Z,3.89
2023-12-11T00:37:25.281Z,4.04
2023-12-11T00:39:26.705Z,4.02
2023-12-11T00:41:28.146Z,4.14
2023-12-11T00:43:44.188Z,4.05
2023-12-11T00:45:47.829Z,3.97
2023-12-11T00:47:49.303Z,3.71
2023-12-11T00:49:51.015Z,3.94
2023-12-11T00:51:52.526Z,3.90
2023-12-11T00:53:54.012Z,4.02
2023-12-11T00:55:55.649Z,3.99
2023-12-11T00:57:57.169Z,3.91
2023-12-11T00:59:58.644Z,3.76
2023-12-11T01:02:00.563Z,3.77
2023-12-11T01:04:02.106Z,3.75
2023-12-11T01:06:03.771Z,3.79
2023-12-11T01:08:05.849Z,3.85
2023-12-11T01:10:07.729Z,3.98
2023-12-11T01:12:09.237Z,4.04
2023-12-11T01:14:11.042Z,3.85
2023-12-11T01:16:12.558Z,3.67
2023-12-11T01:18:14.121Z,3.70
2023-12-11T01:20:15.796Z,3.83
2023-12-11T01:22:17.255Z,3.88
2023-12-11T01:24:18.708Z,3.67
2023-12-11T01:26:20.330Z,3.89
2023-12-11T01:28:21.759Z,3.93
2023-12-11T01:30:23.186Z,4.07
2023-12-11T01:32:24.860Z,4.09
2023-12-11T01:34:26.407Z,4.08
2023-12-11T01:36:27.940Z,4.15
2023-12-11T01:38:29.673Z,4.34
2023-12-11T01:40:31.103Z,4.27
2023-12-11T01:42:34.507Z,3.95
2023-12-11T01:44:36.412Z,4.29
2023-12-11T01:46:37.998Z,4.11
2023-12-11T01:48:39.867Z,4.33
2023-12-11T01:50:41.670Z,4.07
2023-12-11T01:52:43.183Z,4.11
2023-12-11T01:54:45.291Z,4.18
2023-12-11T01:56:47.140Z,3.98
2023-12-11T01:58:49.581Z,4.10
2023-12-11T02:00:52.427Z,4.00
2023-12-11T02:02:54.083Z,4.04
2023-12-11T02:04:55.967Z,3.99
2023-12-11T02:06:58.304Z,4.23
2023-12-11T02:09:00.184Z,4.19
2023-12-11T02:11:01.685Z,4.35
2023-12-11T02:13:04.294Z,4.47
2023-12-11T02:15:06.526Z,4.38
2023-12-11T02:17:10.294Z,4.33
2023-12-11T02:19:11.938Z,4.62
2023-12-11T02:21:13.748Z,4.63
2023-12-11T02:23:34.912Z,4.57
2023-12-11T02:25:37.693Z,4.57
2023-12-11T02:27:39.371Z,4.66
2023-12-11T02:29:40.835Z,4.42
2023-12-11T02:31:42.583Z,4.56
2023-12-11T02:33:44.342Z,4.43
2023-12-11T02:35:45.882Z,4.35
2023-12-11T02:37:47.341Z,4.50
2023-12-11T02:39:48.948Z,4.24
2023-12-11T02:41:50.447Z,4.14
2023-12-11T02:43:52.002Z,4.10
2023-12-11T02:45:53.957Z,4.19
2023-12-11T02:47:55.513Z,4.41
2023-12-11T02:49:57.209Z,4.20
2023-12-11T02:51:59.048Z,4.17
2023-12-11T02:54:00.528Z,4.33
2023-12-11T02:56:01.993Z,4.26
2023-12-11T02:58:04.693Z,4.33
2023-12-11T03:00:07.038Z,4.27
2023-12-11T03:02:08.453Z,4.44
2023-12-11T03:04:10.059Z,4.31
2023-12-11T03:06:18.344Z,4.32
2023-12-11T03:08:19.817Z,4.21
2023-12-11T03:10:21.953Z,4.44
2023-12-11T03:12:23.383Z,4.30
2023-12-11T03:14:24.819Z,4.40
2023-12-11T03:16:26.513Z,4.34
2023-12-11T03:18:28.023Z,4.29
2023-12-11T03:20:29.548Z,4.33
2023-12-11T03:22:31.131Z,4.35
2023-12-11T03:24:32.694Z,4.21
2023-12-11T03:26:34.182Z,4.34
2023-12-11T03:28:35.922Z,4.28
2023-12-11T03:30:37.389Z,4.39
2023-12-11T03:32:38.877Z,4.48
2023-12-11T03:34:40.936Z,4.42
2023-12-11T03:36:45.390Z,4.32
2023-12-11T03:38:46.831Z,4.31
2023-12-11T03:40:48.653Z,4.48
2023-12-11T03:42:50.107Z,4.63
2023-12-11T03:44:51.566Z,4.63
2023-12-11T03:46:53.345Z,4.71
2023-12-11T03:48:54.872Z,4.87
2023-12-11T03:50:57.276Z,5.03
2023-12-11T03:52:58.992Z,5.06
2023-12-11T03:55:00.653Z,5.01
2023-12-11T03:57:02.130Z,5.03
2023-12-11T03:59:03.983Z,5.03
2023-12-11T04:01:05.600Z,4.88
2023-12-11T04:03:07.075Z,4.75
2023-12-11T04:05:08.829Z,5.09
2023-12-11T04:07:10.349Z,5.14
2023-12-11T04:09:11.805Z,4.94
2023-12-11T04:11:13.812Z,4.96
2023-12-11T04:13:15.516Z,4.85
2023-12-11T04:15:16.947Z,4.86
2023-12-11T04:17:18.535Z,4.65
2023-12-11T04:19:20.124Z,4.78
2023-12-11T04:21:21.905Z,4.96
2023-12-11T04:23:23.749Z,4.70
2023-12-11T04:25:25.366Z,4.72
2023-12-11T04:27:26.808Z,4.59
2023-12-11T04:29:28.633Z,4.63
2023-12-11T04:31:30.061Z,4.71
2023-12-11T04:33:31.710Z,4.53
2023-12-11T04:35:33.435Z,4.54
2023-12-11T04:37:34.911Z,4.31
2023-12-11T04:39:36.415Z,4.39
2023-12-11T04:41:38.170Z,4.24
2023-12-11T04:43:39.602Z,4.14
2023-12-11T04:45:41.220Z,3.95
2023-12-11T04:47:43.000Z,4.19
2023-12-11T04:49:44.657Z,4.01
2023-12-11T04:51:46.161Z,3.97
2023-12-11T04:53:47.761Z,3.82
2023-12-11T04:55:49.432Z,3.86
2023-12-11T04:57:51.029Z,3.80
2023-12-11T04:59:52.773Z,3.76
2023-12-11T05:01:54.352Z,3.85
2023-12-11T05:03:55.938Z,4.03
2023-12-11T05:05:57.637Z,3.87
2023-12-11T05:07:59.097Z,3.70
2023-12-11T05:10:00.575Z,3.91
2023-12-11T05:12:02.481Z,3.95
2023-12-11T05:14:04.024Z,3.82
2023-12-11T05:16:05.844Z,4.13
2023-12-11T05:18:07.519Z,4.01
2023-12-11T05:20:09.540Z,4.18
2023-12-11T05:22:11.071Z,4.13
2023-12-11T05:24:13.112Z,4.11
2023-12-11T05:26:20.655Z,4.39
2023-12-11T05:28:22.148Z,4.32
2023-12-11T05:30:24.608Z,4.40
2023-12-11T05:32:26.225Z,4.30
2023-12-11T05:34:27.733Z,4.27
2023-12-11T05:36:29.329Z,4.13
2023-12-11T05:38:30.757Z,4.42
2023-12-11T05:40:32.239Z,4.29
2023-12-11T05:42:33.881Z,4.08
2023-12-11T05:44:35.348Z,4.25
2023-12-11T05:46:36.858Z,4.36
2023-12-11T05:48:38.563Z,4.30
2023-12-11T05:50:41.450Z,4.22
2023-12-11T05:52:43.347Z,4.31
2023-12-11T05:54:44.849Z,4.07
2023-12-11T05:56:46.321Z,4.16
2023-12-11T05:58:47.901Z,4.07
2023-12-11T06:00:49.519Z,3.86
2023-12-11T06:02:51.036Z,4.02
2023-12-11T06:04:52.805Z,4.17
2023-12-11T06:06:54.480Z,4.42
2023-12-11T06:08:55.923Z,4.33
2023-12-11T06:10:57.474Z,4.22
2023-12-11T06:12:59.084Z,4.26
2023-12-11T06:15:00.580Z,4.46
2023-12-11T06:17:02.271Z,4.63
2023-12-11T06:19:04.120Z,4.57
2023-12-11T06:21:05.792Z,4.28
2023-12-11T06:23:07.401Z,4.38
2023-12-11T06:25:09.386Z,4.41
2023-12-11T06:27:10.971Z,4.43
2023-12-11T06:29:12.469Z,4.30
2023-12-11T06:31:15.609Z,4.27
2023-12-11T06:33:17.053Z,4.29
2023-12-11T06:35:18.703Z,4.35
2023-12-11T06:37:20.415Z,4.32
2023-12-11T06:39:22.187Z,4.45
2023-12-11T06:41:23.781Z,4.42
2023-12-11T06:43:25.288Z,4.31
2023-12-11T06:45:26.850Z,4.25
2023-12-11T06:47:28.587Z,4.41
2023-12-11T06:49:30.219Z,4.37
2023-12-11T06:51:31.714Z,4.14
2023-12-11T06:53:33.319Z,4.39
2023-12-11T06:55:34.900Z,4.44
2023-12-11T06:57:36.389Z,4.52
2023-12-11T06:59:38.127Z,4.31
2023-12-11T07:01:39.769Z,4.34
2023-12-11T07:03:41.513Z,4.04
2023-12-11T07:05:44.180Z,4.36
2023-12-11T07:07:47.929Z,4.40
2023-12-11T07:09:49.315Z,4.12
2023-12-11T07:11:50.855Z,4.29
2023-12-11T07:13:52.866Z,4.30
2023-12-11T07:15:54.405Z,4.28
2023-12-11T07:17:56.963Z,4.45
2023-12-11T07:19:58.477Z,4.30
2023-12-11T07:21:59.942Z,4.40
2023-12-11T07:24:01.435Z,4.35
2023-12-11T07:26:03.163Z,4.33
2023-12-11T07:28:04.873Z,4.15
2023-12-11T07:30:07.022Z,4.17
2023-12-11T07:32:08.623Z,4.14
2023-12-11T07:34:10.164Z,4.02
2023-12-11T07:36:12.115Z,4.11
2023-12-11T07:38:14.094Z,4.18
2023-12-11T07:40:15.625Z,4.27
2023-12-11T07:42:17.239Z,4.19
2023-12-11T07:44:18.828Z,4.08
2023-12-11T07:46:21.325Z,4.30
2023-12-11T07:48:23.052Z,4.14
2023-12-11T07:50:24.608Z,4.40
2023-12-11T07:52:29.435Z,4.33
2023-12-11T07:54:31.020Z,4.05
2023-12-11T07:56:32.588Z,4.18
2023-12-11T07:58:34.756Z,4.34
2023-12-11T08:00:36.444Z,4.19
2023-12-11T08:02:38.609Z,4.41
2023-12-11T08:04:40.242Z,4.33
2023-12-11T08:06:42.643Z,4.26
2023-12-11T08:08:44.365Z,4.46
2023-12-11T08:10:46.130Z,4.36
2023-12-11T08:12:53.502Z,4.16
2023-12-11T08:14:55.323Z,4.39
2023-12-11T08:16:56.738Z,4.31
2023-12-11T08:18:58.625Z,4.14
2023-12-11T08:21:00.267Z,4.34
2023-12-11T08:23:01.706Z,4.34
2023-12-11T08:25:03.387Z,4.06
2023-12-11T08:27:05.365Z,4.19
2023-12-11T08:29:07.501Z,4.22
2023-12-11T08:31:09.564Z,4.17
2023-12-11T08:33:11.193Z,4.18
2023-12-11T08:35:12.659Z,4.26
2023-12-11T08:37:14.287Z,4.36
2023-12-11T08:39:15.967Z,4.32
2023-12-11T08:41:17.421Z,4.28
2023-12-11T08:43:18.999Z,4.34
2023-12-11T08:45:20.548Z,4.41
2023-12-11T08:47:22.014Z,4.45
2023-12-11T08:49:23.742Z,4.22
2023-12-11T08:51:25.539Z,4.42
2023-12-11T08:53:26.991Z,4.32
2023-12-11T08:55:31.740Z,4.35
2023-12-11T08:57:36.009Z,4.40
2023-12-11T08:59:37.512Z,4.62
2023-12-11T09:01:39.385Z,4.56
2023-12-11T09:03:41.208Z,4.60
2023-12-11T09:05:42.904Z,4.50
2023-12-11T09:07:44.733Z,4.40
2023-12-11T09:09:46.340Z,4.55
2023-12-11T09:11:47.808Z,4.55
2023-12-11T09:13:49.477Z,4.27
2023-12-11T09:15:51.097Z,4.32
2023-12-11T09:17:52.640Z,4.45
2023-12-11T09:19:55.977Z,4.53
2023-12-11T09:21:58.271Z,4.44
2023-12-11T09:23:59.733Z,4.67
2023-12-11T09:26:01.469Z,4.54
2023-12-11T09:28:03.205Z,4.71
2023-12-11T09:30:07.552Z,4.63
2023-12-11T09:32:09.181Z,4.69
2023-12-11T09:34:11.280Z,4.80
2023-12-11T09:36:12.836Z,4.81
2023-12-11T09:38:14.461Z,4.93
2023-12-11T09:40:16.134Z,4.98
2023-12-11T09:42:18.137Z,5.16
2023-12-11T09:44:20.676Z,5.13
2023-12-11T09:46:23.879Z,4.96
2023-12-11T09:48:25.634Z,5.38
2023-12-11T09:50:28.110Z,5.61
2023-12-11T09:52:29.846Z,5.46
2023-12-11T09:54:31.494Z,5.21
2023-12-11T09:56:33.204Z,4.94
2023-12-11T09:58:34.952Z,5.30
2023-12-11T10:00:37.311Z,5.60
2023-12-11T10:02:42.069Z,5.47
2023-12-11T10:05:06.526Z,5.84
2023-12-11T10:07:08.003Z,5.63
2023-12-11T10:09:27.359Z,5.73
2023-12-11T10:11:28.892Z,5.46
2023-12-11T10:13:30.523Z,5.61
2023-12-11T10:15:33.401Z,5.72
2023-12-11T10:17:35.355Z,5.55
2023-12-11T10:19:37.159Z,5.53
2023-12-11T10:21:40.578Z,5.95
2023-12-11T10:23:42.382Z,5.62
2023-12-11T10:25:49.621Z,5.93
2023-12-11T10:27:51.078Z,6.24
2023-12-11T10:30:12.429Z,5.99
2023-12-11T10:32:14.085Z,5.78
2023-12-11T10:34:15.834Z,6.15
2023-12-11T10:36:17.799Z,5.93
2023-12-11T10:38:26.855Z,5.89
2023-12-11T10:40:39.054Z,5.56
2023-12-11T10:42:41.503Z,6.24
2023-12-11T10:44:47.438Z,5.88
2023-12-11T10:46:55.813Z,5.89
2023-12-11T10:48:58.487Z,6.29
2023-12-11T10:51:00.354Z,6.31
2023-12-11T10:53:02.340Z,5.89
2023-12-11T10:55:04.018Z,6.23
2023-12-11T10:57:09.186Z,6.39
2023-12-11T10:59:11.689Z,6.20
2023-12-11T11:01:14.350Z,6.56
2023-12-11T11:03:17.318Z,6.57
2023-12-11T11:05:21.031Z,6.46
2023-12-11T11:07:38.980Z,6.16
2023-12-11T11:10:05.065Z,6.42
2023-12-11T11:12:17.044Z,6.62
2023-12-11T11:14:18.756Z,6.58
2023-12-11T11:16:20.822Z,6.35
2023-12-11T11:18:22.757Z,6.77
2023-12-11T11:20:24.569Z,6.94
2023-12-11T11:22:32.566Z,6.60
2023-12-11T11:24:40.072Z,6.69
2023-12-11T11:26:41.617Z,6.83
2023-12-11T11:28:44.434Z,6.99
2023-12-11T11:30:46.196Z,6.91
2023-12-11T11:32:56.825Z,7.12
2023-12-11T11:34:58.521Z,6.98
2023-12-11T11:37:00.132Z,7.00
2023-12-11T11:39:01.987Z,6.84
2023-12-11T11:41:03.729Z,6.99
2023-12-11T11:43:09.087Z,7.30
2023-12-11T11:45:10.794Z,7.30
2023-12-11T11:47:18.184Z,7.59
2023-12-11T11:49:34.144Z,7.39
2023-12-11T11:51:36.408Z,7.35
2023-12-11T11:53:38.779Z,7.41
2023-12-11T11:55:40.575Z,7.23
2023-12-11T11:57:42.380Z,7.54
2023-12-11T11:59:47.270Z,7.73
2023-12-11T12:01:56.410Z,7.53
2023-12-11T12:03:58.688Z,7.94
2023-12-11T12:06:00.269Z,7.74
2023-12-11T12:08:01.825Z,7.89
2023-12-11T12:10:03.702Z,7.85
2023-12-11T12:12:05.883Z,8.01
2023-12-11T12:14:13.486Z,8.27
2023-12-11T12:16:27.997Z,8.36
2023-12-11T12:18:29.929Z,8.37
2023-12-11T12:20:31.456Z,8.36
2023-12-11T12:22:33.389Z,8.42
2023-12-11T12:24:39.345Z,8.45
2023-12-11T12:26:42.287Z,8.46
2023-12-11T12:28:44.037Z,8.48
2023-12-11T12:30:45.923Z,8.48
2023-12-11T12:32:50.820Z,8.49
2023-12-11T12:34:52.748Z,8.45
2023-12-11T12:37:00.366Z,8.72
2023-12-11T12:39:02.289Z,8.65
2023-12-11T12:41:04.245Z,8.55
2023-12-11T12:43:10.772Z,8.63
2023-12-11T12:45:16.038Z,8.53
2023-12-11T12:47:22.654Z,8.50
2023-12-11T12:49:24.238Z,8.67
2023-12-11T12:51:25.724Z,8.47
2023-12-11T12:53:27.603Z,8.37
2023-12-11T12:55:29.657Z,8.44
2023-12-11T12:57:36.198Z,8.55
2023-12-11T12:59:41.577Z,8.51
2023-12-11T13:01:43.148Z,8.46
2023-12-11T13:03:44.877Z,7.85
2023-12-11T13:05:47.654Z,7.64
2023-12-11T13:07:59.773Z,7.82
2023-12-11T13:10:09.336Z,7.98
2023-12-11T13:12:11.054Z,7.84
2023-12-11T13:14:13.271Z,7.62
2023-12-11T13:16:14.742Z,7.70
2023-12-11T13:18:16.784Z,7.68
2023-12-11T13:20:18.733Z,7.64
2023-12-11T13:22:20.271Z,7.59
2023-12-11T13:24:21.943Z,7.37
2023-12-11T13:26:23.428Z,7.71
2023-12-11T13:28:24.905Z,7.56
2023-12-11T13:30:26.585Z,7.54
2023-12-11T13:32:28.049Z,7.57
2023-12-11T13:34:29.557Z,7.52
2023-12-11T13:36:31.401Z,7.56
2023-12-11T13:38:32.831Z,7.78
2023-12-11T13:40:34.347Z,7.47
2023-12-11T13:42:37.888Z,7.31
2023-12-11T13:44:39.413Z,7.26
2023-12-11T13:46:40.849Z,7.09
2023-12-11T13:48:42.670Z,7.20
2023-12-11T13:50:44.267Z,7.07
2023-12-11T13:52:45.700Z,7.03
2023-12-11T13:54:47.535Z,7.07
2023-12-11T13:56:49.279Z,7.09
2023-12-11T13:58:50.740Z,7.10
2023-12-11T14:00:52.400Z,6.75
2023-12-11T14:03:01.308Z,6.86
2023-12-11T14:05:05.985Z,6.84
2023-12-11T14:07:07.631Z,6.82
2023-12-11T14:09:09.089Z,6.76
2023-12-11T14:11:10.554Z,6.63
2023-12-11T14:13:12.793Z,6.62
2023-12-11T14:15:14.262Z,6.54
2023-12-11T14:17:15.776Z,6.66
2023-12-11T14:19:17.592Z,6.67
2023-12-11T14:21:19.122Z,6.70
2023-12-11T14:23:20.552Z,6.61
2023-12-11T14:25:22.479Z,6.49
2023-12-11T14:27:23.919Z,6.68
2023-12-11T14:29:25.354Z,6.64
2023-12-11T14:31:27.509Z,6.60
2023-12-11T14:33:29.111Z,6.58
2023-12-11T14:35:30.742Z,6.63
2023-12-11T14:37:33.089Z,6.74
2023-12-11T14:39:34.657Z,6.52
2023-12-11T14:41:42.433Z,6.37
2023-12-11T14:43:44.132Z,6.56
2023-12-11T14:45:45.624Z,6.52
2023-12-11T14:47:47.311Z,6.43
2023-12-11T14:49:49.089Z,6.31
2023-12-11T14:51:50.758Z,6.27
2023-12-11T14:53:52.283Z,6.33
2023-12-11T14:55:53.855Z,6.46
2023-12-11T14:57:55.404Z,6.53
2023-12-11T14:59:57.187Z,6.21
2023-12-11T15:01:58.903Z,6.36
2023-12-11T15:04:00.428Z,6.39
2023-12-11T15:06:02.862Z,6.43
2023-12-11T15:08:04.470Z,6.44
2023-12-11T15:10:06.623Z,6.42
2023-12-11T15:12:08.645Z,6.42
2023-12-11T15:14:10.621Z,6.51
2023-12-11T15:16:12.700Z,6.35
2023-12-11T15:18:14.530Z,6.36
2023-12-11T15:20:16.553Z,6.33
2023-12-11T15:22:18.133Z,6.47
2023-12-11T15:24:19.784Z,6.38
2023-12-11T15:26:22.190Z,6.65
2023-12-11T15:28:24.320Z,6.34
2023-12-11T15:30:25.886Z,6.36
2023-12-11T15:32:27.615Z,6.41
2023-12-11T15:34:29.395Z,6.36
2023-12-11T15:36:30.970Z,6.31
2023-12-11T15:38:35.745Z,6.36
2023-12-11T15:40:37.187Z,6.37
2023-12-11T15:42:38.842Z,6.34
2023-12-11T15:44:44.046Z,6.32
2023-12-11T15:46:45.478Z,6.47
2023-12-11T15:48:47.927Z,6.42
2023-12-11T15:50:50.160Z,6.52
2023-12-11T15:52:51.680Z,6.65
2023-12-11T15:54:53.267Z,6.61
2023-12-11T15:56:55.248Z,6.36
2023-12-11T15:58:56.861Z,6.45
2023-12-11T16:00:58.364Z,6.57
2023-12-11T16:03:00.064Z,6.36
2023-12-11T16:05:01.738Z,6.48
2023-12-11T16:07:03.208Z,6.47
2023-12-11T16:09:04.763Z,6.78
2023-12-11T16:11:06.334Z,6.47
2023-12-11T16:13:08.072Z,6.53
2023-12-11T16:15:10.299Z,6.82
2023-12-11T16:17:11.895Z,6.98
2023-12-11T16:19:13.813Z,6.76
2023-12-11T16:21:15.602Z,6.80
2023-12-11T16:23:17.160Z,6.83
2023-12-11T16:25:18.644Z,6.71
2023-12-11T16:27:20.273Z,6.78
2023-12-11T16:29:21.786Z,6.70
2023-12-11T16:31:24.521Z,6.77
2023-12-11T16:33:26.120Z,6.70
2023-12-11T16:35:27.652Z,6.67
2023-12-11T16:37:29.114Z,6.76
2023-12-11T16:39:31.160Z,6.61
2023-12-11T16:41:32.706Z,6.55
2023-12-11T16:43:36.015Z,6.89
2023-12-11T16:45:43.781Z,6.86
2023-12-11T16:47:45.356Z,6.80
2023-12-11T16:49:55.555Z,6.84
2023-12-11T16:52:02.828Z,6.69
2023-12-11T16:54:04.532Z,6.46
2023-12-11T16:56:06.377Z,6.58
2023-12-11T16:58:08.487Z,6.74
2023-12-11T17:00:11.000Z,6.67
2023-12-11T17:02:12.480Z,6.65
2023-12-11T17:04:14.267Z,6.84
2023-12-11T17:06:19.845Z,6.88
2023-12-11T17:08:23.750Z,6.67
2023-12-11T17:10:25.397Z,6.72
2023-12-11T17:12:30.732Z,6.74
2023-12-11T17:14:32.389Z,6.61
2023-12-11T17:16:34.010Z,6.90
2023-12-11T17:18:35.736Z,6.80
2023-12-11T17:20:37.221Z,6.68
2023-12-11T17:22:39.123Z,6.70
2023-12-11T17:24:40.766Z,6.66
2023-12-11T17:26:42.204Z,6.73
2023-12-11T17:28:43.903Z,6.77
2023-12-11T17:30:45.476Z,6.90
2023-12-11T17:32:46.991Z,6.87
2023-12-11T17:34:48.712Z,6.97
2023-12-11T17:36:50.305Z,6.74
2023-12-11T17:38:51.772Z,6.81
2023-12-11T17:40:53.307Z,7.13
2023-12-11T17:42:54.864Z,6.71
2023-12-11T17:44:56.414Z,6.71
2023-12-11T17:46:58.004Z,6.86
2023-12-11T17:48:59.584Z,6.71
2023-12-11T17:51:02.729Z,7.06
2023-12-11T17:53:05.577Z,6.81
2023-12-11T17:55:07.273Z,6.91
2023-12-11T17:57:08.773Z,6.86
2023-12-11T17:59:10.385Z,7.14
2023-12-11T18:01:11.990Z,7.23
2023-12-11T18:03:13.600Z,7.42
2023-12-11T18:05:15.205Z,7.08
2023-12-11T18:07:16.747Z,6.93
2023-12-11T18:09:18.498Z,7.07
2023-12-11T18:11:20.011Z,7.08
2023-12-11T18:13:21.674Z,6.83
2023-12-11T18:15:23.119Z,6.98
2023-12-11T18:17:25.050Z,7.28
2023-12-11T18:19:26.878Z,6.94
2023-12-11T18:21:28.380Z,7.08
2023-12-11T18:23:29.934Z,7.36
2023-12-11T18:25:32.046Z,7.30
2023-12-11T18:27:33.870Z,7.28
2023-12-11T18:29:47.026Z,7.30
2023-12-11T18:31:48.715Z,7.41
2023-12-11T18:33:50.412Z,7.22
2023-12-11T18:35:52.105Z,7.25
2023-12-11T18:37:53.626Z,7.17
2023-12-11T18:39:55.138Z,7.26
2023-12-11T18:41:56.800Z,7.33
2023-12-11T18:43:58.520Z,7.21
2023-12-11T18:45:59.992Z,7.31
2023-12-11T18:48:01.687Z,7.46
2023-12-11T18:50:03.498Z,7.35
2023-12-11T18:52:05.445Z,7.46
2023-12-11T18:54:07.703Z,7.43
2023-12-11T18:56:18.033Z,7.56
2023-12-11T18:58:19.497Z,7.53
2023-12-11T19:00:21.416Z,7.50
2023-12-11T19:02:23.103Z,7.52
2023-12-11T19:04:24.827Z,7.11
2023-12-11T19:06:26.496Z,7.42
2023-12-11T19:08:28.097Z,7.58
2023-12-11T19:10:29.554Z,7.38
2023-12-11T19:12:31.222Z,7.05
2023-12-11T19:14:32.946Z,7.16
2023-12-11T19:16:34.391Z,7.18
2023-12-11T19:18:36.784Z,7.01
2023-12-11T19:20:38.407Z,7.09
2023-12-11T19:22:39.843Z,7.18
2023-12-11T19:24:41.271Z,7.60
2023-12-11T19:26:42.795Z,7.43
2023-12-11T19:28:44.285Z,7.32
2023-12-11T19:30:51.781Z,7.59
2023-12-11T19:32:54.154Z,7.38
2023-12-11T19:34:55.888Z,7.48
2023-12-11T19:36:57.421Z,7.74
2023-12-11T19:38:58.966Z,7.72
2023-12-11T19:41:00.397Z,7.46
2023-12-11T19:43:01.989Z,7.35
2023-12-11T19:45:03.806Z,7.12
2023-12-11T19:47:05.249Z,7.34
2023-12-11T19:49:06.763Z,7.10
2023-12-11T19:51:12.784Z,7.32
2023-12-11T19:53:14.259Z,7.32
2023-12-11T19:55:15.966Z,7.02
2023-12-11T19:57:17.571Z,7.00
2023-12-11T19:59:19.007Z,6.92
2023-12-11T20:01:31.447Z,6.92
2023-12-11T20:03:33.083Z,7.04
2023-12-11T20:05:34.597Z,6.80
2023-12-11T20:07:36.520Z,6.68
2023-12-11T20:09:41.750Z,6.81
2023-12-11T20:11:43.211Z,6.71
2023-12-11T20:13:44.792Z,6.82
2023-12-11T20:15:47.445Z,6.99
2023-12-11T20:17:48.980Z,7.09
2023-12-11T20:19:50.488Z,7.18
2023-12-11T20:21:52.239Z,6.97
2023-12-11T20:23:53.686Z,7.07
2023-12-11T20:25:55.590Z,7.05
2023-12-11T20:27:57.150Z,6.84
2023-12-11T20:29:58.620Z,6.98
2023-12-11T20:32:00.068Z,6.71
2023-12-11T20:34:01.861Z,6.74
2023-12-11T20:36:03.600Z,6.80
2023-12-11T20:38:05.027Z,6.90
2023-12-11T20:40:07.211Z,6.81
2023-12-11T20:42:08.664Z,6.80
2023-12-11T20:44:10.114Z,6.73
2023-12-11T20:46:12.110Z,6.69
2023-12-11T20:48:13.629Z,6.87
2023-12-11T20:50:15.249Z,6.78
2023-12-11T20:52:16.775Z,6.96
2023-12-11T20:54:18.230Z,6.91
2023-12-11T20:56:31.782Z,7.03
2023-12-11T20:58:35.266Z,6.91
2023-12-11T21:00:36.716Z,6.86
2023-12-11T21:02:38.233Z,6.79
2023-12-11T21:04:40.062Z,6.46
2023-12-11T21:06:41.516Z,6.83
2023-12-11T21:08:45.117Z,6.86
2023-12-11T21:10:47.351Z,6.97
2023-12-11T21:12:48.813Z,6.95
2023-12-11T21:14:50.341Z,7.05
2023-12-11T21:16:51.881Z,6.87
2023-12-11T21:18:53.521Z,7.22
2023-12-11T21:20:55.704Z,7.14
2023-12-11T21:22:57.213Z,7.17
2023-12-11T21:24:58.727Z,7.10
2023-12-11T21:27:00.603Z,7.23
2023-12-11T21:29:02.249Z,7.12
2023-12-11T21:31:03.812Z,7.41
2023-12-11T21:33:05.417Z,7.41
2023-12-11T21:35:07.451Z,7.42
2023-12-11T21:37:09.255Z,7.21
2023-12-11T21:39:10.820Z,7.46
2023-12-11T21:41:12.504Z,7.39
2023-12-11T21:43:14.012Z,7.57
2023-12-11T21:45:15.734Z,7.56
2023-12-11T21:47:17.301Z,7.33
2023-12-11T21:49:19.144Z,7.38
2023-12-11T21:51:21.271Z,7.58
2023-12-11T21:53:22.922Z,7.63
2023-12-11T21:55:24.468Z,7.56
2023-12-11T21:57:26.036Z,7.72
2023-12-11T21:59:35.600Z,7.84
2023-12-11T22:01:44.005Z,7.46
2023-12-11T22:03:45.831Z,7.59
2023-12-11T22:05:47.485Z,7.43
2023-12-11T22:07:49.037Z,7.64
2023-12-11T22:09:51.013Z,7.76
2023-12-11T22:11:52.609Z,7.78
2023-12-11T22:13:54.093Z,7.85
2023-12-11T22:15:55.685Z,7.76
2023-12-11T22:17:57.330Z,7.98
2023-12-11T22:19:58.882Z,7.99
2023-12-11T22:22:00.509Z,8.09
2023-12-11T22:24:02.075Z,8.04
2023-12-11T22:26:03.579Z,8.11
2023-12-11T22:28:05.421Z,8.15
2023-12-11T22:30:07.469Z,8.18
2023-12-11T22:32:08.969Z,8.14
2023-12-11T22:34:11.015Z,7.99
2023-12-11T22:36:20.881Z,8.10
2023-12-11T22:38:22.346Z,8.08
2023-12-11T22:40:23.930Z,8.11
2023-12-11T22:42:25.481Z,8.24
2023-12-11T22:44:26.926Z,8.27
2023-12-11T22:46:28.964Z,8.31
2023-12-11T22:48:30.676Z,8.20
2023-12-11T22:50:32.266Z,8.10
2023-12-11T22:52:34.109Z,8.25
2023-12-11T22:54:35.787Z,8.08
2023-12-11T22:56:37.453Z,8.26
2023-12-11T22:58:38.990Z,7.91
2023-12-11T23:00:40.652Z,8.05
2023-12-11T23:02:42.161Z,8.09
2023-12-11T23:04:43.940Z,7.72
2023-12-11T23:06:45.938Z,8.04
2023-12-11T23:08:47.405Z,8.12
2023-12-11T23:10:49.248Z,8.15
2023-12-11T23:12:50.803Z,8.23
2023-12-11T23:14:52.260Z,8.18
2023-12-11T23:16:53.942Z,8.03
2023-12-11T23:18:56.431Z,8.17
2023-12-11T23:20:58.094Z,8.21
2023-12-11T23:22:59.796Z,8.26
2023-12-11T23:25:01.332Z,8.20
2023-12-11T23:27:02.915Z,8.24
2023-12-11T23:29:04.455Z,8.11
2023-12-11T23:31:06.155Z,8.15
2023-12-11T23:33:07.913Z,7.92
2023-12-11T23:35:09.567Z,8.21
2023-12-11T23:37:11.226Z,8.09
2023-12-11T23:39:12.682Z,8.21
2023-12-11T23:41:14.316Z,8.07
2023-12-11T23:43:15.956Z,8.20
2023-12-11T23:45:17.643Z,8.10
2023-12-11T23:47:19.933Z,8.07
2023-12-11T23:49:21.698Z,8.19
2023-12-11T23:51:23.204Z,8.09
2023-12-11T23:53:24.834Z,8.05
2023-12-11T23:55:26.671Z,7.99
2023-12-11T23:57:28.329Z,7.96
2023-12-11T23:59:30.143Z,7.68
